Skip Navigation LinksHome page > Weather > Current weather Skip Navigation Links

Current Weather

Ben-Gurion Intl Apt, Tel Aviv, Israel

For information only: do not use for flight planning or navigation.
Latest weather
Observation time Monday, February 8, 2016 3:20 AM IST
Local time Monday, February 8, 2016 3:41 AM IST
Flight conditions Visual Meteorological Conditions
Winds
Wind direction variable
Wind speed 3 mph
Visibility 6.2 mi.
Sky condition
Ceiling unlimited
Cloud layer scattered clouds 5,000 ft.
Temperature 50°F
Dewpoint 46°F
Altimeter 30.12 in.Hg
Derived measurements
Relative humidity 87%
Wind chill 49°F
Density altitude -512 ft.
Remarks
No significant changes expected in the next two hours.
METAR LLBG 080120Z VRB03KT 9999 SCT050 10/08 Q1020 NOSIG

Settings

Location code

InnerDrive.Weather 4.0.5722.1 Release CLR 4.0.30319.34209
Copyright ©2015 Inner Drive Technology. All rights reserved. Portions Copyright ©1986-2015 David Braverman.

Find weather

Site navigation


Skip Navigation Links

Place info

Page info

PayPal - The safer, easier way to pay online!

Return home.

Copyright ©2016 Inner Drive Technology. Purveyors of fine, hand-crafted computer software. Page printed 2016-02-08T01:41:10 UTC.